Time;durP1;ratioP1;P1;durP2;ratioP2;P2;SDS_P1;SDS_P2;PMS_P1;PMS_P2;Temp;Humidity;BMP_temperature;BMP_pressure;BME280_temperature;BME280_humidity;BME280_pressure;Samples;Min_cycle;Max_cycle;Signal;HPM_P1;HPM_P2
2021/08/06 00:00:00;;;;;;;1.15;0.55;;;19.90;74.40;;;;;;5110172;27;20039;-77
2021/08/06 00:02:27;;;;;;;2.40;0.82;;;19.90;74.40;;;;;;5111694;28;20039;-77
2021/08/06 00:04:55;;;;;;;1.73;0.77;;;19.90;74.50;;;;;;5126451;27;20472;-77
2021/08/06 00:07:23;;;;;;;1.60;0.80;;;19.90;74.50;;;;;;5109519;27;20066;-77
2021/08/06 00:09:51;;;;;;;1.15;0.60;;;19.90;74.50;;;;;;5110775;28;20509;-77
2021/08/06 00:12:21;;;;;;;2.42;0.80;;;19.90;75.10;;;;;;5125136;27;20084;-77
2021/08/06 00:14:51;;;;;;;2.17;0.95;;;19.80;74.50;;;;;;5095429;28;20040;-78
2021/08/06 00:17:18;;;;;;;1.67;0.77;;;19.80;74.60;;;;;;5110163;28;20055;-77
2021/08/06 00:19:45;;;;;;;1.77;0.70;;;19.80;74.60;;;;;;5114055;27;20040;-77
2021/08/06 00:22:12;;;;;;;3.03;0.70;;;19.80;74.70;;;;;;5113814;27;20441;-77
2021/08/06 00:24:39;;;;;;;1.73;0.70;;;19.80;74.70;;;;;;5115097;28;20390;-77
2021/08/06 00:27:06;;;;;;;1.45;0.70;;;19.80;74.80;;;;;;5108635;28;20035;-77
2021/08/06 00:29:33;;;;;;;1.50;0.70;;;19.80;74.80;;;;;;5089115;28;20066;-78
2021/08/06 00:32:00;;;;;;;1.67;0.70;;;19.80;74.90;;;;;;5113758;27;20106;-77
2021/08/06 00:34:28;;;;;;;1.33;0.77;;;19.80;75.00;;;;;;5095138;28;20044;-78
2021/08/06 00:36:55;;;;;;;1.23;0.75;;;19.70;75.00;;;;;;5126021;27;20051;-78
2021/08/06 00:39:26;;;;;;;1.50;0.57;;;19.80;75.20;;;;;;5108625;27;20040;-78
2021/08/06 00:41:55;;;;;;;1.65;0.70;;;19.70;75.30;;;;;;5094946;28;20483;-78
2021/08/06 00:44:23;;;;;;;1.17;0.65;;;19.70;75.40;;;;;;5109250;28;20066;-77
2021/08/06 00:46:51;;;;;;;0.93;0.50;;;19.70;75.50;;;;;;5112868;27;20089;-78
2021/08/06 00:49:20;;;;;;;3.65;0.47;;;19.60;75.50;;;;;;5079515;28;20036;-78
2021/08/06 00:51:51;;;;;;;2.38;0.60;;;19.60;75.60;;;;;;5109429;28;20093;-77
2021/08/06 00:54:20;;;;;;;0.93;0.40;;;19.60;75.60;;;;;;5097791;28;20143;-78
2021/08/06 00:57:02;;;;;;;1.25;0.57;;;19.60;75.80;;;;;;5082765;27;20429;-78
2021/08/06 00:59:32;;;;;;;1.30;0.60;;;19.60;75.80;;;;;;5097404;28;20047;-78
2021/08/06 01:02:23;;;;;;;2.10;0.40;;;19.60;75.80;;;;;;5112820;27;20048;-79
2021/08/06 01:05:18;;;;;;;1.10;0.50;;;19.60;75.80;;;;;;5111443;28;20051;-77
2021/08/06 01:07:58;;;;;;;1.15;0.50;;;19.60;75.90;;;;;;5108738;27;20384;-77
2021/08/06 01:10:33;;;;;;;0.90;0.40;;;19.50;75.90;;;;;;5098568;28;20044;-77
2021/08/06 01:13:01;;;;;;;1.33;0.40;;;19.50;75.90;;;;;;5108516;28;20059;-78
2021/08/06 01:15:33;;;;;;;0.83;0.50;;;19.50;75.90;;;;;;5094195;27;20052;-78
2021/08/06 01:18:05;;;;;;;0.90;0.40;;;19.50;76.00;;;;;;5110786;28;20035;-77
2021/08/06 01:20:42;;;;;;;0.80;0.40;;;19.50;76.00;;;;;;5115862;27;20044;-78
2021/08/06 01:23:33;;;;;;;1.40;0.40;;;19.60;76.10;;;;;;5113824;27;20296;-77
2021/08/06 01:26:10;;;;;;;0.80;0.40;;;19.60;76.10;;;;;;5107087;27;20055;-78
2021/08/06 01:28:58;;;;;;;0.63;0.32;;;19.60;76.10;;;;;;5094548;27;20052;-77
2021/08/06 01:31:29;;;;;;;2.15;0.65;;;19.60;76.20;;;;;;5110479;28;20044;-79
2021/08/06 01:34:13;;;;;;;0.65;0.30;;;19.60;76.30;;;;;;5108057;28;20032;-78
2021/08/06 01:36:41;;;;;;;0.80;0.47;;;19.60;76.40;;;;;;5101548;28;20098;-78
2021/08/06 01:39:10;;;;;;;1.10;0.55;;;19.60;76.40;;;;;;5113189;27;20664;-77
2021/08/06 01:42:20;;;;;;;0.80;0.30;;;19.60;76.40;;;;;;5109517;27;20598;-78
2021/08/06 01:44:54;;;;;;;0.95;0.30;;;19.60;76.30;;;;;;4993325;28;20052;-78
2021/08/06 01:47:39;;;;;;;1.80;0.30;;;19.50;76.50;;;;;;5097920;28;20039;-77
2021/08/06 01:50:22;;;;;;;1.60;0.50;;;19.60;76.60;;;;;;5107137;28;20399;-77
2021/08/06 01:53:00;;;;;;;0.95;0.47;;;19.50;76.60;;;;;;5110667;27;20047;-77
2021/08/06 01:55:42;;;;;;;1.00;0.40;;;19.50;76.60;;;;;;5098645;28;20399;-78
2021/08/06 01:58:12;;;;;;;0.77;0.30;;;19.50;76.70;;;;;;5124392;27;20038;-78
2021/08/06 02:00:45;;;;;;;0.82;0.40;;;19.50;76.70;;;;;;5108908;28;20164;-78
2021/08/06 02:03:14;;;;;;;1.25;0.30;;;19.50;76.70;;;;;;5110239;28;20108;-77
2021/08/06 02:05:48;;;;;;;0.77;0.33;;;19.50;76.70;;;;;;5091900;28;20031;-77
2021/08/06 02:08:18;;;;;;;1.02;0.43;;;19.50;76.80;;;;;;5108517;27;20820;-78
2021/08/06 02:10:48;;;;;;;0.75;0.40;;;19.50;76.90;;;;;;5094739;27;20039;-77
2021/08/06 02:13:19;;;;;;;0.88;0.40;;;19.50;76.90;;;;;;5109129;28;20042;-78
2021/08/06 02:15:48;;;;;;;0.50;0.30;;;19.50;77.00;;;;;;5096853;27;20042;-78
2021/08/06 02:18:22;;;;;;;0.98;0.50;;;19.50;77.10;;;;;;5077306;28;20063;-78
2021/08/06 02:21:16;;;;;;;0.45;0.30;;;19.50;77.20;;;;;;5096790;28;20449;-78
2021/08/06 02:23:51;;;;;;;0.93;0.30;;;19.50;77.20;;;;;;5109149;28;20051;-77
2021/08/06 02:26:25;;;;;;;0.82;0.40;;;19.50;77.30;;;;;;5107533;27;20098;-77
2021/08/06 02:28:58;;;;;;;1.45;0.40;;;19.50;77.40;;;;;;5110583;27;20053;-78
2021/08/06 02:31:27;;;;;;;1.20;0.70;;;19.40;77.50;;;;;;5109402;27;20437;-78
2021/08/06 02:33:58;;;;;;;0.80;0.35;;;19.40;77.60;;;;;;5105209;28;20062;-77
2021/08/06 02:36:25;;;;;;;0.85;0.30;;;19.40;77.70;;;;;;5092693;28;20392;-77
2021/08/06 02:38:56;;;;;;;0.65;0.30;;;19.40;77.80;;;;;;5093095;27;20043;-77
2021/08/06 02:41:24;;;;;;;1.83;0.40;;;19.40;77.80;;;;;;5107242;28;20483;-78
2021/08/06 02:43:51;;;;;;;0.73;0.30;;;19.30;77.80;;;;;;5108272;27;20503;-78
2021/08/06 02:46:18;;;;;;;1.27;0.40;;;19.40;77.90;;;;;;5089611;28;20101;-78
2021/08/06 02:48:46;;;;;;;0.63;0.30;;;19.30;77.90;;;;;;5108688;27;20059;-78
2021/08/06 02:51:17;;;;;;;1.23;0.45;;;19.30;78.00;;;;;;5110244;27;20036;-79
2021/08/06 02:53:44;;;;;;;1.15;0.43;;;19.30;78.10;;;;;;5118876;27;20084;-78
2021/08/06 02:56:11;;;;;;;0.75;0.30;;;19.30;78.10;;;;;;5091782;28;20036;-78
2021/08/06 02:58:40;;;;;;;1.15;0.40;;;19.30;78.20;;;;;;5108440;27;20104;-78
2021/08/06 03:01:07;;;;;;;1.10;0.30;;;19.30;78.20;;;;;;5090889;28;20050;-77
2021/08/06 03:03:35;;;;;;;0.60;0.40;;;19.30;78.20;;;;;;5109883;28;20039;-78
2021/08/06 03:06:05;;;;;;;1.35;0.52;;;19.30;78.20;;;;;;5092944;28;21813;-78
2021/08/06 03:08:32;;;;;;;3.40;0.60;;;19.40;78.30;;;;;;5106600;28;20074;-78
2021/08/06 03:10:59;;;;;;;1.10;0.40;;;19.30;78.20;;;;;;5108817;28;20748;-78
2021/08/06 03:13:32;;;;;;;;;;;19.40;78.30;;;;;;5077270;28;20448;-78
2021/08/06 03:15:59;;;;;;;1.00;0.40;;;19.30;78.10;;;;;;5116610;27;19974;-77
2021/08/06 03:18:26;;;;;;;1.33;0.40;;;19.30;78.30;;;;;;5110246;28;20545;-78
2021/08/06 03:20:55;;;;;;;2.30;0.70;;;19.30;78.80;;;;;;5109598;28;20040;-77
2021/08/06 03:23:24;;;;;;;3.22;0.60;;;19.30;78.20;;;;;;5104633;28;20085;-77
2021/08/06 03:25:52;;;;;;;0.57;0.32;;;19.30;78.20;;;;;;5106903;28;20039;-77
2021/08/06 03:28:21;;;;;;;0.82;0.40;;;19.30;78.10;;;;;;5092121;28;20042;-78
2021/08/06 03:30:48;;;;;;;0.70;0.35;;;19.30;78.10;;;;;;5063848;28;20043;-78
2021/08/06 03:33:16;;;;;;;0.50;0.30;;;19.30;78.10;;;;;;5089565;28;20810;-78
2021/08/06 03:35:43;;;;;;;1.08;0.40;;;19.40;78.10;;;;;;5112388;28;20032;-78
2021/08/06 03:38:16;;;;;;;0.70;0.30;;;19.40;78.10;;;;;;5099998;28;20516;-78
2021/08/06 03:40:43;;;;;;;1.00;0.47;;;19.40;78.10;;;;;;5106618;28;20074;-77
2021/08/06 03:43:11;;;;;;;1.30;0.40;;;19.40;78.80;;;;;;5077996;28;20123;-78
2021/08/06 03:45:39;;;;;;;0.95;0.40;;;19.40;78.10;;;;;;5092696;28;20071;-78
2021/08/06 03:48:06;;;;;;;1.02;0.30;;;19.40;78.20;;;;;;5107945;28;20055;-77
2021/08/06 03:50:34;;;;;;;1.13;0.50;;;19.40;78.30;;;;;;5108232;28;20403;-78
2021/08/06 03:53:03;;;;;;;2.03;0.50;;;19.40;78.30;;;;;;5110682;28;20495;-78
2021/08/06 03:55:30;;;;;;;0.63;0.30;;;19.40;78.30;;;;;;5111537;28;20035;-78
2021/08/06 03:57:59;;;;;;;1.00;0.50;;;19.40;78.30;;;;;;5076432;28;20403;-77
2021/08/06 04:00:33;;;;;;;0.93;0.40;;;19.40;78.30;;;;;;5089406;28;20047;-78
2021/08/06 04:03:00;;;;;;;1.30;0.50;;;19.40;78.30;;;;;;5112814;28;20044;-78
2021/08/06 04:05:27;;;;;;;1.55;0.38;;;19.40;78.30;;;;;;5121527;27;20394;-78
2021/08/06 04:07:54;;;;;;;1.48;0.50;;;19.40;78.30;;;;;;5095228;28;20047;-78
2021/08/06 04:10:25;;;;;;;1.00;0.40;;;19.40;78.30;;;;;;5107322;28;20054;-78
2021/08/06 04:12:54;;;;;;;1.02;0.40;;;19.40;78.40;;;;;;5108077;28;20092;-78
2021/08/06 04:15:21;;;;;;;0.98;0.50;;;19.30;78.40;;;;;;5095314;28;20131;-77
2021/08/06 04:17:48;;;;;;;2.80;0.60;;;19.20;78.50;;;;;;5097591;28;20035;-78
2021/08/06 04:20:16;;;;;;;1.25;0.50;;;19.20;78.80;;;;;;5094560;28;20040;-78
2021/08/06 04:22:43;;;;;;;1.17;0.50;;;19.00;79.20;;;;;;5096410;27;20063;-78
2021/08/06 04:25:12;;;;;;;1.15;0.55;;;18.90;79.60;;;;;;5105810;28;20039;-78
2021/08/06 04:27:39;;;;;;;1.20;0.40;;;18.70;80.00;;;;;;5106558;28;20123;-78
2021/08/06 04:30:08;;;;;;;0.98;0.45;;;18.70;80.40;;;;;;5096376;28;20483;-78
2021/08/06 04:32:36;;;;;;;1.13;0.40;;;18.60;80.60;;;;;;5123390;27;20114;-78
2021/08/06 04:35:04;;;;;;;0.82;0.50;;;18.50;80.70;;;;;;5095603;28;20059;-78
2021/08/06 04:37:31;;;;;;;2.28;0.63;;;18.50;80.90;;;;;;5114171;28;20437;-78
2021/08/06 04:39:58;;;;;;;1.10;0.45;;;18.50;81.10;;;;;;5113400;27;20052;-78
2021/08/06 04:42:25;;;;;;;1.20;0.50;;;18.40;81.10;;;;;;5111514;28;20046;-78
2021/08/06 04:44:52;;;;;;;1.00;0.40;;;18.50;81.30;;;;;;5111929;27;20066;-78
2021/08/06 04:47:19;;;;;;;1.80;0.50;;;18.40;81.40;;;;;;5068944;28;20048;-78
2021/08/06 04:49:46;;;;;;;1.35;0.38;;;18.40;81.50;;;;;;5095318;27;20040;-78
2021/08/06 04:52:13;;;;;;;0.77;0.38;;;18.40;81.70;;;;;;5094905;28;20043;-78
2021/08/06 04:54:40;;;;;;;0.63;0.40;;;18.40;81.70;;;;;;5078778;28;20460;-78
2021/08/06 04:57:07;;;;;;;1.08;0.40;;;18.50;82.40;;;;;;5080067;28;20046;-78
2021/08/06 04:59:34;;;;;;;0.55;0.30;;;18.40;81.80;;;;;;5095292;28;20127;-78
2021/08/06 05:02:01;;;;;;;0.82;0.40;;;18.50;81.80;;;;;;5093811;28;20040;-77
2021/08/06 05:04:28;;;;;;;0.65;0.30;;;18.50;81.80;;;;;;5094045;28;20086;-78
2021/08/06 05:06:55;;;;;;;2.00;0.80;;;18.60;81.80;;;;;;5108939;27;20035;-77
2021/08/06 05:09:22;;;;;;;0.50;0.28;;;18.60;81.80;;;;;;5113056;28;20051;-78
2021/08/06 05:11:50;;;;;;;0.60;0.30;;;18.60;81.80;;;;;;5097018;28;20035;-78
2021/08/06 05:14:17;;;;;;;0.93;0.40;;;18.70;81.80;;;;;;5096062;28;20069;-78
2021/08/06 05:16:44;;;;;;;0.82;0.30;;;18.70;81.90;;;;;;5113778;27;20038;-78
2021/08/06 05:19:11;;;;;;;0.65;0.25;;;18.70;81.90;;;;;;5113345;27;20070;-78
2021/08/06 05:21:39;;;;;;;0.70;0.30;;;18.70;81.90;;;;;;5094681;28;20170;-78
2021/08/06 05:24:06;;;;;;;1.00;0.50;;;18.80;82.10;;;;;;5112535;28;20032;-78
2021/08/06 05:26:33;;;;;;;1.05;0.30;;;18.80;81.90;;;;;;5078618;28;20938;-78
2021/08/06 05:29:04;;;;;;;0.60;0.30;;;18.90;82.50;;;;;;5093439;28;20069;-77
2021/08/06 05:31:32;;;;;;;0.43;0.20;;;18.90;81.80;;;;;;5093630;28;20040;-78
2021/08/06 05:33:59;;;;;;;0.90;0.30;;;19.00;81.70;;;;;;5131624;27;20112;-78
2021/08/06 05:36:26;;;;;;;0.90;0.30;;;19.00;81.70;;;;;;5111657;28;20095;-78
2021/08/06 05:38:53;;;;;;;0.68;0.32;;;19.10;81.70;;;;;;5092812;28;20508;-78
2021/08/06 05:41:20;;;;;;;1.02;0.40;;;19.10;82.30;;;;;;5117307;27;20044;-78
2021/08/06 05:43:47;;;;;;;0.98;0.38;;;19.10;81.70;;;;;;5104769;27;20221;-78
2021/08/06 05:46:15;;;;;;;0.80;0.40;;;19.10;81.70;;;;;;5110972;28;20078;-77
2021/08/06 05:48:42;;;;;;;0.80;0.30;;;19.20;81.80;;;;;;5110723;27;20047;-77
2021/08/06 05:51:09;;;;;;;1.17;0.50;;;19.20;81.70;;;;;;5083187;28;20085;-78
2021/08/06 05:53:37;;;;;;;0.85;0.30;;;19.20;81.80;;;;;;5099108;28;20089;-83
2021/08/06 05:56:04;;;;;;;0.63;0.28;;;19.20;81.70;;;;;;5079575;27;20063;-83
2021/08/06 05:58:43;;;;;;;0.65;0.35;;;19.30;81.70;;;;;;5113419;28;20040;-83
2021/08/06 06:01:10;;;;;;;0.57;0.30;;;19.30;81.70;;;;;;5083136;28;20047;-82
2021/08/06 06:03:48;;;;;;;0.70;0.40;;;19.30;81.80;;;;;;5101004;28;20040;-82
2021/08/06 06:06:24;;;;;;;1.05;0.50;;;19.20;81.80;;;;;;5093872;28;20048;-83
2021/08/06 06:08:56;;;;;;;;;;;19.20;81.90;;;;;;5095122;28;20407;-78
2021/08/06 06:11:24;;;;;;;1.42;0.50;;;19.20;82.00;;;;;;5104310;28;19920;-83
2021/08/06 06:13:51;;;;;;;1.38;0.70;;;19.10;82.10;;;;;;5093169;28;20044;-82
2021/08/06 06:16:18;;;;;;;0.85;0.35;;;19.20;82.20;;;;;;5081991;28;20036;-82
2021/08/06 06:18:45;;;;;;;1.05;0.60;;;19.20;82.10;;;;;;5097977;28;20048;-83
2021/08/06 06:21:12;;;;;;;1.27;0.50;;;19.30;82.10;;;;;;5069131;28;20048;-83
2021/08/06 06:23:40;;;;;;;1.77;0.60;;;19.30;82.00;;;;;;5095976;28;20394;-82
2021/08/06 06:26:08;;;;;;;1.65;0.70;;;19.30;81.90;;;;;;5085525;28;20074;-82
2021/08/06 06:28:36;;;;;;;1.27;0.60;;;19.30;82.10;;;;;;5062672;28;20048;-82
2021/08/06 06:31:04;;;;;;;1.55;0.50;;;19.20;82.20;;;;;;5076687;28;20046;-83
2021/08/06 06:33:32;;;;;;;1.05;0.60;;;19.10;82.60;;;;;;5093114;28;20032;-80
2021/08/06 06:35:59;;;;;;;0.55;0.35;;;19.00;82.80;;;;;;5109050;28;20036;-82
2021/08/06 06:38:29;;;;;;;1.23;0.60;;;19.00;83.20;;;;;;5079053;28;20031;-82
2021/08/06 06:41:03;;;;;;;0.80;0.40;;;18.90;83.40;;;;;;5112152;28;21079;-81
2021/08/06 06:43:33;;;;;;;0.70;0.40;;;18.90;83.50;;;;;;5056995;28;20055;-81
2021/08/06 06:46:00;;;;;;;0.85;0.50;;;18.90;83.60;;;;;;5093811;28;20138;-81
2021/08/06 06:48:27;;;;;;;0.57;0.30;;;18.90;83.60;;;;;;5094972;28;20139;-81
2021/08/06 06:50:56;;;;;;;0.60;0.35;;;18.90;83.60;;;;;;5082079;28;20048;-81
2021/08/06 06:53:24;;;;;;;0.90;0.50;;;18.80;83.90;;;;;;5091936;28;20062;-81
2021/08/06 06:55:51;;;;;;;0.73;0.30;;;18.80;84.10;;;;;;5095144;28;20069;-81
2021/08/06 06:58:19;;;;;;;1.02;0.45;;;18.80;84.30;;;;;;5094685;28;20035;-80
2021/08/06 07:00:47;;;;;;;0.55;0.20;;;18.80;84.40;;;;;;5071258;28;20403;-82
2021/08/06 07:03:14;;;;;;;0.82;0.30;;;18.90;84.40;;;;;;5092126;28;20039;-82
2021/08/06 07:05:41;;;;;;;1.02;0.30;;;18.90;84.30;;;;;;5106157;28;20412;-82
2021/08/06 07:08:08;;;;;;;0.82;0.40;;;19.00;84.20;;;;;;5088841;28;20576;-82
2021/08/06 07:10:38;;;;;;;1.20;0.40;;;19.10;84.30;;;;;;5079312;28;20053;-82
2021/08/06 07:13:05;;;;;;;0.77;0.40;;;19.10;84.30;;;;;;5095209;28;20048;-81
2021/08/06 07:15:33;;;;;;;1.15;0.40;;;19.30;84.20;;;;;;5077766;28;20039;-81
2021/08/06 07:18:00;;;;;;;1.02;0.40;;;19.40;84.00;;;;;;5095124;28;20040;-82
2021/08/06 07:20:28;;;;;;;0.98;0.50;;;19.50;83.70;;;;;;5111996;28;20051;-80
2021/08/06 07:22:56;;;;;;;0.63;0.30;;;19.70;83.60;;;;;;5126969;27;20518;-79
2021/08/06 07:25:24;;;;;;;5.95;0.50;;;19.80;83.40;;;;;;5119814;27;20047;-79
2021/08/06 07:27:55;;;;;;;0.88;0.50;;;19.90;83.40;;;;;;5114284;28;20043;-79
2021/08/06 07:30:23;;;;;;;1.08;0.50;;;20.00;83.20;;;;;;5112170;28;20444;-79
2021/08/06 07:32:50;;;;;;;1.00;0.55;;;20.00;83.10;;;;;;5093521;28;20036;-79
2021/08/06 07:35:18;;;;;;;0.93;0.50;;;20.10;83.10;;;;;;5093928;28;20046;-79
2021/08/06 07:37:46;;;;;;;1.60;0.70;;;20.10;83.10;;;;;;5128719;28;20044;-78
2021/08/06 07:40:16;;;;;;;0.80;0.40;;;20.00;83.10;;;;;;5107838;28;20051;-78
2021/08/06 07:42:44;;;;;;;1.08;0.57;;;20.00;83.40;;;;;;5106149;28;20557;-79
2021/08/06 07:45:11;;;;;;;1.60;0.88;;;19.90;83.60;;;;;;5077098;28;20040;-79
2021/08/06 07:47:39;;;;;;;1.70;1.10;;;19.90;83.60;;;;;;5105466;28;20510;-78
2021/08/06 07:50:07;;;;;;;2.25;1.27;;;19.80;83.70;;;;;;5093631;28;20035;-83
2021/08/06 07:52:34;;;;;;;1.25;0.70;;;19.80;83.90;;;;;;5072396;28;20047;-82
2021/08/06 07:55:02;;;;;;;1.75;1.05;;;19.80;83.80;;;;;;5076407;28;20050;-81
2021/08/06 07:57:29;;;;;;;1.45;1.00;;;19.80;83.70;;;;;;5096853;28;20070;-81
2021/08/06 07:59:57;;;;;;;1.50;0.80;;;19.80;83.60;;;;;;5090285;28;20050;-81
2021/08/06 08:02:25;;;;;;;1.83;1.00;;;19.80;83.50;;;;;;5092990;28;20047;-82
2021/08/06 08:04:52;;;;;;;1.52;0.80;;;20.00;83.50;;;;;;5075688;28;20067;-79
2021/08/06 08:07:19;;;;;;;2.00;0.90;;;20.10;83.30;;;;;;5091791;28;20510;-79
2021/08/06 08:09:46;;;;;;;1.95;1.00;;;20.30;82.90;;;;;;5069276;28;20102;-81
2021/08/06 08:12:14;;;;;;;2.65;1.60;;;20.40;82.60;;;;;;5088929;28;20036;-80
2021/08/06 08:14:42;;;;;;;3.03;1.67;;;20.50;82.30;;;;;;5074179;28;20039;-81
2021/08/06 08:17:10;;;;;;;2.13;1.38;;;20.60;82.30;;;;;;5115168;28;20036;-81
2021/08/06 08:19:37;;;;;;;3.72;1.50;;;20.60;82.10;;;;;;5085068;27;20051;-81
2021/08/06 08:22:05;;;;;;;1.50;1.10;;;20.70;82.00;;;;;;5094991;28;20051;-81
2021/08/06 08:24:32;;;;;;;2.83;1.33;;;20.80;81.60;;;;;;5098295;28;20521;-82
2021/08/06 08:28:08;;;;;;;2.38;1.30;;;20.90;81.50;;;;;;5083097;28;20522;-82
2021/08/06 08:30:42;;;;;;;1.75;0.98;;;20.90;81.30;;;;;;5120630;27;20428;-82
2021/08/06 08:33:15;;;;;;;1.77;1.10;;;20.90;81.50;;;;;;5109499;27;20054;-85
2021/08/06 08:40:12;;;;;;;2.47;1.70;;;21.00;81.20;;;;;;5115522;28;20504;-87
2021/08/06 08:42:49;;;;;;;2.17;1.30;;;20.90;81.10;;;;;;5098884;28;20390;-87
2021/08/06 08:45:30;;;;;;;1.55;1.10;;;21.00;81.00;;;;;;5103524;28;20040;-85
2021/08/06 08:48:01;;;;;;;2.15;1.20;;;20.80;81.10;;;;;;5097873;28;20135;-90
2021/08/06 08:50:36;;;;;;;4.18;1.50;;;20.70;81.20;;;;;;5094385;28;20051;-88
2021/08/06 08:53:29;;;;;;;2.88;1.60;;;20.60;81.20;;;;;;5111830;28;20032;-88
2021/08/06 08:56:31;;;;;;;3.17;1.40;;;20.70;81.10;;;;;;5085414;28;20046;-83
2021/08/06 08:59:08;;;;;;;3.00;1.35;;;20.80;80.90;;;;;;5071266;28;20040;-83
2021/08/06 09:01:36;;;;;;;3.13;1.75;;;21.10;80.40;;;;;;5113249;27;20051;-86
2021/08/06 09:04:25;;;;;;;3.33;1.13;;;21.40;79.80;;;;;;5097523;28;20043;-85
2021/08/06 09:06:53;;;;;;;2.35;1.48;;;21.60;78.90;;;;;;5108442;28;20396;-85
2021/08/06 09:09:35;;;;;;;;;;;21.70;79.00;;;;;;5102815;28;20141;-82
2021/08/06 09:12:23;;;;;;;2.65;1.65;;;21.80;78.70;;;;;;5111740;28;19934;-85
2021/08/06 09:15:17;;;;;;;3.17;1.50;;;21.80;79.10;;;;;;5108595;28;20103;-83
2021/08/06 09:18:01;;;;;;;4.18;1.67;;;21.70;78.30;;;;;;5082779;28;20052;-82
2021/08/06 09:20:39;;;;;;;2.03;1.00;;;21.60;78.60;;;;;;5097045;28;20046;-88
2021/08/06 09:23:07;;;;;;;2.63;1.40;;;21.70;78.60;;;;;;5097380;28;20390;-84
2021/08/06 09:26:13;;;;;;;2.40;1.20;;;21.80;78.40;;;;;;5123510;27;20065;-88
2021/08/06 09:29:43;;;;;;;3.38;1.40;;;21.90;77.80;;;;;;5095105;28;20040;-89
2021/08/06 09:33:17;;;;;;;2.55;1.25;;;22.20;77.20;;;;;;5084645;28;20575;-88
2021/08/06 09:40:28;;;;;;;1.23;0.70;;;22.40;76.80;;;;;;5127515;28;20039;-90
2021/08/06 09:43:31;;;;;;;1.55;0.80;;;22.70;76.20;;;;;;5071862;28;20047;-86
2021/08/06 09:46:25;;;;;;;1.63;0.90;;;22.70;76.00;;;;;;5113101;28;20047;-85
2021/08/06 09:49:09;;;;;;;2.35;1.00;;;22.70;75.80;;;;;;5119875;27;20067;-87
2021/08/06 09:51:54;;;;;;;1.63;0.80;;;22.60;75.60;;;;;;5110286;28;20055;-91
2021/08/06 09:58:27;;;;;;;2.40;0.77;;;22.40;75.90;;;;;;5106107;27;20074;-92
2021/08/06 10:00:55;;;;;;;1.25;0.70;;;22.50;75.40;;;;;;5108095;28;20040;-91
2021/08/06 10:03:34;;;;;;;1.85;0.95;;;22.60;75.00;;;;;;5090539;28;20057;-91
2021/08/06 10:06:21;;;;;;;2.00;0.85;;;22.90;74.30;;;;;;5110636;27;20051;-91
2021/08/06 10:08:48;;;;;;;1.58;0.60;;;22.90;73.50;;;;;;5114159;28;20051;-91
2021/08/06 10:11:16;;;;;;;1.88;0.50;;;23.00;73.50;;;;;;5097239;28;20039;-90
2021/08/06 10:13:44;;;;;;;1.02;0.60;;;23.10;73.40;;;;;;5109732;28;20086;-88
2021/08/06 10:16:12;;;;;;;1.17;0.60;;;23.00;73.30;;;;;;5113743;27;20052;-90
2021/08/06 10:18:41;;;;;;;0.98;0.57;;;22.80;73.10;;;;;;5076658;28;20043;-76
2021/08/06 10:21:09;;;;;;;1.65;0.70;;;22.60;73.60;;;;;;5112081;28;20487;-77
2021/08/06 10:23:37;;;;;;;1.27;0.55;;;22.40;73.70;;;;;;5079073;28;20070;-78
2021/08/06 10:26:07;;;;;;;1.63;0.60;;;22.30;74.00;;;;;;5095452;28;20043;-77
2021/08/06 10:28:35;;;;;;;1.02;0.60;;;22.20;74.20;;;;;;5113034;28;20167;-84
2021/08/06 10:31:20;;;;;;;0.80;0.45;;;22.30;74.20;;;;;;5080058;28;20130;-83
2021/08/06 10:34:08;;;;;;;1.45;0.70;;;22.40;73.80;;;;;;5095687;28;20044;-90
2021/08/06 10:36:43;;;;;;;1.75;0.60;;;22.40;73.00;;;;;;5091194;28;20044;-82
2021/08/06 10:39:37;;;;;;;1.00;0.60;;;22.50;72.90;;;;;;5096893;28;20126;-85
2021/08/06 10:42:05;;;;;;;0.77;0.40;;;22.60;72.60;;;;;;5102191;28;20138;-77
2021/08/06 10:44:57;;;;;;;1.42;0.57;;;22.70;72.70;;;;;;5094984;28;20043;-77
2021/08/06 10:47:53;;;;;;;2.80;0.70;;;22.80;72.20;;;;;;5106792;28;20108;-79
2021/08/06 10:50:23;;;;;;;2.65;0.70;;;22.80;71.70;;;;;;5085854;28;20123;-78
2021/08/06 10:53:20;;;;;;;2.03;0.67;;;22.90;71.50;;;;;;5112184;28;20035;-78
2021/08/06 10:55:47;;;;;;;0.57;0.40;;;23.00;71.00;;;;;;5125814;27;20044;-79
2021/08/06 10:58:52;;;;;;;1.10;0.50;;;23.20;71.10;;;;;;5101243;28;20154;-84
2021/08/06 11:01:26;;;;;;;1.63;0.40;;;23.40;70.70;;;;;;5109761;28;20059;-81
2021/08/06 11:03:57;;;;;;;0.90;0.40;;;23.50;70.70;;;;;;5104211;27;20503;-81
2021/08/06 11:06:37;;;;;;;1.33;0.40;;;23.80;70.50;;;;;;5111631;28;20043;-79
2021/08/06 11:09:06;;;;;;;1.77;0.52;;;24.10;70.00;;;;;;5106687;28;20067;-81
2021/08/06 11:14:28;;;;;;;0.98;0.47;;;23.80;69.50;;;;;;5102815;28;20066;-86
2021/08/06 11:17:16;;;;;;;1.10;0.40;;;23.50;69.70;;;;;;5109198;28;20043;-86
2021/08/06 11:20:05;;;;;;;2.40;0.30;;;23.60;70.20;;;;;;5112086;27;20043;-86
2021/08/06 11:22:49;;;;;;;2.08;0.50;;;23.60;69.90;;;;;;5093322;28;20552;-84
2021/08/06 11:25:23;;;;;;;0.73;0.30;;;23.60;70.00;;;;;;5106191;28;20036;-82
2021/08/06 11:27:56;;;;;;;3.03;0.47;;;23.70;69.60;;;;;;5089038;28;20484;-79
2021/08/06 11:30:27;;;;;;;0.95;0.40;;;23.80;69.10;;;;;;5106546;28;20036;-78
2021/08/06 11:33:20;;;;;;;1.08;0.30;;;24.30;68.30;;;;;;5112700;28;20039;-80
2021/08/06 11:35:48;;;;;;;1.08;0.30;;;24.60;67.20;;;;;;5090778;28;20433;-79
2021/08/06 11:38:17;;;;;;;1.30;0.30;;;25.00;66.20;;;;;;5094324;28;20035;-81
2021/08/06 11:40:47;;;;;;;0.85;0.20;;;25.10;65.80;;;;;;5110996;28;20039;-78
2021/08/06 11:43:15;;;;;;;0.43;0.30;;;25.50;65.50;;;;;;5109671;28;20081;-81
2021/08/06 11:46:05;;;;;;;0.50;0.30;;;25.60;64.60;;;;;;5122894;28;20070;-82
2021/08/06 11:49:10;;;;;;;0.50;0.30;;;25.30;65.20;;;;;;5122130;27;20040;-79
2021/08/06 11:51:52;;;;;;;0.77;0.30;;;25.00;65.90;;;;;;5110144;28;20027;-79
2021/08/06 11:54:23;;;;;;;0.40;0.25;;;24.80;66.70;;;;;;5111634;28;20036;-81
2021/08/06 11:57:18;;;;;;;1.23;0.50;;;24.60;66.80;;;;;;5110234;28;20040;-76
2021/08/06 11:59:47;;;;;;;1.13;0.40;;;24.40;66.50;;;;;;5108692;28;20538;-81
2021/08/06 12:02:16;;;;;;;0.60;0.32;;;24.60;66.60;;;;;;5110761;28;20104;-84
2021/08/06 12:04:46;;;;;;;0.67;0.30;;;25.30;65.50;;;;;;5094994;28;20035;-83
2021/08/06 12:07:14;;;;;;;1.35;0.40;;;26.00;64.10;;;;;;5106449;28;20338;-79
2021/08/06 12:09:45;;;;;;;1.10;0.50;;;26.00;63.60;;;;;;5106044;28;20070;-79
2021/08/06 12:12:12;;;;;;;0.75;0.50;;;25.80;63.50;;;;;;5104595;28;20093;-78
2021/08/06 12:14:44;;;;;;;0.80;0.40;;;25.60;63.50;;;;;;5079555;28;20044;-80
2021/08/06 12:17:19;;;;;;;0.70;0.30;;;25.10;63.30;;;;;;5104559;28;20063;-78
2021/08/06 12:19:47;;;;;;;0.50;0.30;;;24.70;64.70;;;;;;5096173;28;20126;-77
2021/08/06 12:22:20;;;;;;;0.50;0.20;;;24.30;65.50;;;;;;5110556;28;20044;-75
2021/08/06 12:24:47;;;;;;;0.73;0.30;;;24.20;65.90;;;;;;5087552;28;20055;-75
2021/08/06 12:27:26;;;;;;;1.38;0.40;;;24.10;66.10;;;;;;5072167;28;20040;-76
2021/08/06 12:29:53;;;;;;;0.88;0.40;;;24.10;65.90;;;;;;5108285;28;20047;-77
2021/08/06 12:32:20;;;;;;;1.17;0.35;;;24.00;66.30;;;;;;5116827;28;20076;-77
2021/08/06 12:34:51;;;;;;;0.90;0.40;;;23.60;66.90;;;;;;5081717;28;20047;-78
2021/08/06 12:37:20;;;;;;;0.70;0.30;;;23.00;68.50;;;;;;5111593;28;20567;-78
2021/08/06 12:39:47;;;;;;;0.65;0.20;;;22.60;70.10;;;;;;5105251;28;20031;-76
2021/08/06 12:42:24;;;;;;;0.40;0.20;;;22.80;70.30;;;;;;5115293;28;20495;-77
2021/08/06 12:44:55;;;;;;;0.35;0.30;;;23.00;69.70;;;;;;5113529;27;20050;-75
2021/08/06 12:47:24;;;;;;;0.50;0.20;;;23.10;69.20;;;;;;5117862;27;20035;-76
2021/08/06 12:50:14;;;;;;;0.40;0.20;;;23.20;69.30;;;;;;5097978;27;20067;-77
2021/08/06 12:52:43;;;;;;;0.50;0.20;;;23.70;68.60;;;;;;5109969;28;20043;-76
2021/08/06 12:55:19;;;;;;;0.55;0.30;;;24.60;66.90;;;;;;5097548;28;20908;-77
2021/08/06 12:57:52;;;;;;;0.40;0.20;;;25.60;64.80;;;;;;5109445;27;20027;-77
2021/08/06 13:00:20;;;;;;;0.20;0.10;;;26.40;63.50;;;;;;5110749;28;20040;-77
2021/08/06 13:03:02;;;;;;;0.65;0.20;;;27.30;62.60;;;;;;5096282;28;20044;-77
2021/08/06 13:06:04;;;;;;;0.22;0.17;;;28.20;61.30;;;;;;5111993;28;20144;-77
2021/08/06 13:08:41;;;;;;;0.10;0.10;;;28.50;61.10;;;;;;5112339;27;20043;-75
2021/08/06 13:11:12;;;;;;;0.40;0.20;;;28.80;60.30;;;;;;5112439;28;20048;-76
2021/08/06 13:13:45;;;;;;;0.30;0.20;;;28.90;59.90;;;;;;5110539;27;20063;-76
2021/08/06 13:16:19;;;;;;;0.40;0.20;;;28.40;59.80;;;;;;5111438;27;20040;-76
2021/08/06 13:18:48;;;;;;;0.80;0.30;;;27.70;61.10;;;;;;5108829;28;20044;-77
2021/08/06 13:21:15;;;;;;;0.80;0.10;;;27.20;62.40;;;;;;5111543;27;20483;-77
2021/08/06 13:23:43;;;;;;;0.30;0.20;;;27.00;63.20;;;;;;5114685;28;20114;-77
2021/08/06 13:26:10;;;;;;;0.75;0.20;;;27.80;62.40;;;;;;5119889;27;20100;-77
2021/08/06 13:28:38;;;;;;;0.32;0.30;;;28.50;60.90;;;;;;5093314;28;20047;-76
2021/08/06 13:31:05;;;;;;;1.95;0.22;;;28.30;60.50;;;;;;5117675;27;20526;-77